createdAt,value
2022-09-15T03:57:56.163Z,1.67
2022-09-15T04:00:59.714Z,1.67
2022-09-15T04:04:03.256Z,1.80
2022-09-15T04:07:06.270Z,1.90
2022-09-15T04:10:10.059Z,1.65
2022-09-15T04:13:13.213Z,1.87
2022-09-15T04:16:18.808Z,1.67
2022-09-15T04:19:21.674Z,1.95
2022-09-15T04:22:24.920Z,1.85
2022-09-15T04:25:28.093Z,1.83
2022-09-15T04:28:36.642Z,1.35
2022-09-15T04:31:39.627Z,1.98
2022-09-15T04:34:42.725Z,1.62
2022-09-15T04:37:45.656Z,1.90
2022-09-15T04:40:51.903Z,2.20
2022-09-15T04:43:55.680Z,1.77
2022-09-15T04:46:59.182Z,1.70
2022-09-15T04:50:02.344Z,1.35
2022-09-15T04:53:05.617Z,1.65
2022-09-15T04:56:17.227Z,1.70
2022-09-15T04:59:20.495Z,1.80
2022-09-15T05:02:23.449Z,2.05
2022-09-15T05:05:27.130Z,2.00
2022-09-15T05:08:30.060Z,2.40
2022-09-15T05:11:33.160Z,2.00
2022-09-15T05:14:35.793Z,2.58
2022-09-15T05:17:38.877Z,2.22
2022-09-15T05:20:41.752Z,2.15
2022-09-15T05:23:45.414Z,1.85
2022-09-15T05:26:48.343Z,2.35
2022-09-15T05:30:04.340Z,1.80
2022-09-15T05:33:14.221Z,1.92
2022-09-15T05:36:20.262Z,1.80
2022-09-15T05:39:23.407Z,2.10
2022-09-15T05:42:26.594Z,1.83
2022-09-15T05:45:29.510Z,2.20
2022-09-15T05:48:34.248Z,2.20
2022-09-15T05:51:37.086Z,1.95
2022-09-15T05:54:40.024Z,2.50
2022-09-15T05:57:42.772Z,2.20
2022-09-15T06:00:46.773Z,2.55
2022-09-15T06:03:50.679Z,2.67
2022-09-15T06:06:53.458Z,2.05
2022-09-15T06:09:56.624Z,2.28
2022-09-15T06:12:59.283Z,2.30
2022-09-15T06:16:08.756Z,2.17
2022-09-15T06:19:12.261Z,1.98
2022-09-15T06:22:15.458Z,2.40
2022-09-15T06:25:18.398Z,2.30
2022-09-15T06:28:21.878Z,2.03
2022-09-15T06:31:26.720Z,2.15
2022-09-15T06:34:30.301Z,2.00
2022-09-15T06:37:36.505Z,2.03
2022-09-15T06:40:39.665Z,1.85
2022-09-15T06:43:42.811Z,2.05
2022-09-15T06:46:46.232Z,2.78
2022-09-15T06:49:49.109Z,2.12
2022-09-15T06:52:52.297Z,1.60
2022-09-15T06:55:55.121Z,1.70
2022-09-15T06:58:59.692Z,1.80
2022-09-15T07:02:05.103Z,1.92
2022-09-15T07:05:08.760Z,1.70
2022-09-15T07:08:12.071Z,2.00
2022-09-15T07:11:16.211Z,1.85
2022-09-15T07:14:19.129Z,1.98
2022-09-15T07:17:22.445Z,2.22
2022-09-15T07:20:26.063Z,1.80
2022-09-15T07:23:29.913Z,1.90
2022-09-15T07:26:33.818Z,1.65
2022-09-15T07:29:38.811Z,1.87
2022-09-15T07:32:41.843Z,1.50
2022-09-15T07:35:45.114Z,1.62
2022-09-15T07:38:49.759Z,1.67
2022-09-15T07:41:52.866Z,1.85
2022-09-15T07:44:55.542Z,1.92
2022-09-15T07:47:58.711Z,1.50
2022-09-15T07:51:01.812Z,1.60
2022-09-15T07:54:04.901Z,1.60
2022-09-15T07:57:08.342Z,1.83
2022-09-15T08:00:12.543Z,1.65
2022-09-15T08:03:16.347Z,1.75
2022-09-15T08:06:23.727Z,1.42
2022-09-15T08:09:27.017Z,1.40
2022-09-15T08:12:31.286Z,1.58
2022-09-15T08:15:37.657Z,1.33
2022-09-15T08:18:42.533Z,1.37
2022-09-15T08:21:45.647Z,1.50
2022-09-15T08:24:48.743Z,1.35
2022-09-15T08:27:54.030Z,1.60
2022-09-15T08:31:06.804Z,1.30
2022-09-15T08:34:15.882Z,1.50
2022-09-15T08:37:18.608Z,1.30
2022-09-15T08:40:26.808Z,1.25
2022-09-15T08:43:35.975Z,1.50
2022-09-15T08:46:46.368Z,1.48
2022-09-15T08:50:15.517Z,1.00
2022-09-15T08:53:38.549Z,1.05
2022-09-15T08:56:43.512Z,1.23
2022-09-15T08:59:46.673Z,1.00
2022-09-15T09:03:16.412Z,1.30
2022-09-15T09:06:36.235Z,0.90
2022-09-15T09:09:49.873Z,0.98
2022-09-15T09:13:10.357Z,0.70
2022-09-15T09:16:32.954Z,1.08
2022-09-15T09:19:45.119Z,1.00
2022-09-15T09:22:51.705Z,1.05
2022-09-15T09:25:57.160Z,1.20
2022-09-15T09:29:02.379Z,0.70
2022-09-15T09:32:19.812Z,1.08
2022-09-15T09:35:43.146Z,0.95
2022-09-15T09:38:48.252Z,0.80
2022-09-15T09:41:51.376Z,1.15
2022-09-15T09:44:54.574Z,0.90
2022-09-15T09:48:02.972Z,1.40
2022-09-15T09:51:31.711Z,1.10
2022-09-15T09:57:40.712Z,0.70
2022-09-15T10:00:43.909Z,0.80
2022-09-15T10:03:47.477Z,0.88
2022-09-15T10:06:50.335Z,0.90
2022-09-15T10:10:01.729Z,0.80
2022-09-15T10:13:04.703Z,0.98
2022-09-15T10:16:08.004Z,0.88
2022-09-15T10:19:14.924Z,1.00
2022-09-15T10:22:26.492Z,0.95
2022-09-15T10:25:49.640Z,0.95
2022-09-15T10:29:11.812Z,1.10
2022-09-15T10:32:35.679Z,1.17
2022-09-15T10:35:42.400Z,0.75
2022-09-15T10:38:48.212Z,0.90
2022-09-15T10:42:15.700Z,1.10
2022-09-15T10:45:24.711Z,0.90
2022-09-15T10:48:49.653Z,0.90
2022-09-15T10:52:14.024Z,0.77
2022-09-15T10:55:52.856Z,0.80
2022-09-15T10:59:08.583Z,0.90
2022-09-15T11:02:41.063Z,0.80
2022-09-15T11:06:05.417Z,0.75
2022-09-15T11:09:13.991Z,1.00
2022-09-15T11:12:30.674Z,0.98
2022-09-15T11:15:50.228Z,0.88
2022-09-15T11:19:06.812Z,0.90
2022-09-15T11:22:24.610Z,1.00
2022-09-15T11:25:32.180Z,1.57
2022-09-15T11:28:47.390Z,1.37
2022-09-15T11:31:57.488Z,1.20
2022-09-15T11:35:06.581Z,1.25
2022-09-15T11:38:34.575Z,1.60
2022-09-15T11:42:01.356Z,1.30
2022-09-15T11:45:06.760Z,1.25
2022-09-15T11:48:28.385Z,2.12
2022-09-15T11:51:39.440Z,1.70
2022-09-15T11:54:52.893Z,1.40
2022-09-15T11:58:16.357Z,1.80
2022-09-15T12:01:28.639Z,1.90
2022-09-15T12:04:37.744Z,1.60
2022-09-15T12:07:51.341Z,1.60
2022-09-15T12:10:59.046Z,1.50
2022-09-15T12:14:04.394Z,2.30
2022-09-15T12:17:11.291Z,1.95
2022-09-15T12:20:22.945Z,2.03
2022-09-15T12:23:53.406Z,2.08
2022-09-15T12:26:59.185Z,1.95
2022-09-15T12:30:02.470Z,2.00
2022-09-15T12:33:44.365Z,2.25
2022-09-15T12:36:49.445Z,1.90
2022-09-15T12:39:53.957Z,2.00
2022-09-15T12:42:57.656Z,2.17
2022-09-15T12:46:02.137Z,2.10
2022-09-15T12:49:05.291Z,2.03
2022-09-15T12:52:10.027Z,2.45
2022-09-15T12:55:29.709Z,2.35
2022-09-15T12:58:37.633Z,3.03
2022-09-15T13:01:49.004Z,2.58
2022-09-15T13:04:54.701Z,2.62
2022-09-15T13:07:58.181Z,2.90
2022-09-15T13:11:21.936Z,2.72
2022-09-15T13:14:32.893Z,3.65
2022-09-15T13:17:36.567Z,3.12
2022-09-15T13:20:47.102Z,2.70
2022-09-15T13:23:53.110Z,2.08
2022-09-15T13:26:56.890Z,1.73
2022-09-15T13:30:10.302Z,1.83
2022-09-15T13:40:47.939Z,1.87
2022-09-15T13:44:20.640Z,2.08
2022-09-15T13:47:46.868Z,2.40
2022-09-15T13:50:59.838Z,2.42
2022-09-15T13:54:06.832Z,2.35
2022-09-15T13:57:09.585Z,2.40
2022-09-15T14:00:22.976Z,2.55
2022-09-15T14:03:43.750Z,2.85
2022-09-15T14:06:50.090Z,2.62
2022-09-15T14:09:52.985Z,2.53
2022-09-15T14:13:01.223Z,2.75
2022-09-15T14:16:11.911Z,3.67
2022-09-15T14:19:35.328Z,2.70
2022-09-15T14:23:05.154Z,2.62
2022-09-15T14:26:14.825Z,2.80
2022-09-15T14:29:20.713Z,2.20
2022-09-15T14:32:25.328Z,2.28
2022-09-15T14:35:38.064Z,2.33
2022-09-15T14:38:41.207Z,2.00
2022-09-15T14:41:45.542Z,1.77
2022-09-15T14:48:17.102Z,2.25
2022-09-15T14:51:20.622Z,2.47
2022-09-15T14:54:32.790Z,2.65
2022-09-15T15:09:56.521Z,2.70
2022-09-15T15:13:05.559Z,3.22
2022-09-15T15:24:24.030Z,2.50
2022-09-15T15:27:32.888Z,2.75
2022-09-15T15:30:46.825Z,3.08
2022-09-15T15:33:59.186Z,2.72
2022-09-15T15:41:22.572Z,3.10
2022-09-15T15:44:28.537Z,3.08
2022-09-15T15:51:35.635Z,3.50
2022-09-15T15:54:53.482Z,3.35
2022-09-15T15:57:56.263Z,3.00
2022-09-15T16:01:03.199Z,2.65
2022-09-15T16:04:41.732Z,3.42
2022-09-15T16:07:47.393Z,3.17
2022-09-15T16:10:51.752Z,3.10
2022-09-15T16:13:54.621Z,3.08
2022-09-15T16:17:00.189Z,3.35
2022-09-15T16:20:03.585Z,2.83
2022-09-15T16:23:07.655Z,2.78
